Time,TemperatureF,DewpointF,PressureIn,WindDirection,WindDirectionDegrees,WindSpeedMPH,WindSpeedGustMPH,Humidity,HourlyPrecipIn,Conditions,Clouds,dailyrainin,SoftwareType,DateUTC
2013-07-20 00:00:00,60.2,52.5,0.00,ENE,68,11.5,-999.0,75,0.00,,,-99.99,,2013-07-20 08:00:00,
2013-07-20 00:04:00,60.1,52.3,0.00,NE,51,22.1,-999.0,75,0.00,,,-99.99,,2013-07-20 08:04:00,
2013-07-20 00:09:00,60.5,52.1,0.00,NE,39,18.3,-999.0,73,0.00,,,-99.99,,2013-07-20 08:09:00,
2013-07-20 00:14:00,60.6,52.2,0.00,NE,50,14.7,-999.0,73,0.00,,,-99.99,,2013-07-20 08:14:00,
2013-07-20 00:19:00,60.3,52.3,0.00,NE,39,16.3,-999.0,74,0.00,,,-99.99,,2013-07-20 08:19:00,
2013-07-20 00:24:00,60.1,52.2,0.00,ENE,65,16.7,-999.0,75,0.00,,,-99.99,,2013-07-20 08:24:00,
2013-07-20 00:29:00,60.3,52.3,0.00,North,354,6.0,-999.0,75,0.00,,,-99.99,,2013-07-20 08:29:00,
2013-07-20 00:34:00,59.8,52.3,0.00,North,10,18.8,-999.0,76,0.00,,,-99.99,,2013-07-20 08:34:00,
2013-07-20 00:39:00,59.6,52.2,0.00,NNE,20,14.7,-999.0,76,0.00,,,-99.99,,2013-07-20 08:39:00,
2013-07-20 00:44:00,59.7,52.3,0.00,NNE,18,17.5,-999.0,76,0.00,,,-99.99,,2013-07-20 08:44:00,
2013-07-20 00:49:00,59.4,52.3,0.00,NNE,19,11.7,-999.0,77,0.00,,,-99.99,,2013-07-20 08:49:00,
2013-07-20 00:54:00,59.4,52.2,0.00,NE,40,27.2,-999.0,76,0.00,,,-99.99,,2013-07-20 08:54:00,
2013-07-20 01:00:00,59.1,52.2,0.00,NNE,30,18.5,-999.0,77,0.00,,,-99.99,,2013-07-20 09:00:00,
2013-07-20 01:04:00,58.9,52.1,0.00,North,0,6.4,-999.0,78,0.00,,,-99.99,,2013-07-20 09:04:00,
2013-07-20 01:09:00,59.0,52.0,0.00,NE,56,10.2,-999.0,77,0.00,,,-99.99,,2013-07-20 09:09:00,
2013-07-20 01:14:00,59.0,52.1,0.00,NNE,30,8.7,-999.0,77,0.00,,,-99.99,,2013-07-20 09:14:00,
2013-07-20 01:19:00,58.8,51.9,0.00,NE,46,12.1,-999.0,77,0.00,,,-99.99,,2013-07-20 09:19:00,
2013-07-20 01:24:00,59.2,51.7,0.00,ENE,73,27.6,-999.0,76,0.00,,,-99.99,,2013-07-20 09:24:00,
2013-07-20 01:29:00,59.3,51.7,0.00,ENE,64,12.4,-999.0,75,0.00,,,-99.99,,2013-07-20 09:29:00,
2013-07-20 01:34:00,59.1,51.7,0.00,East,90,12.3,-999.0,76,0.00,,,-99.99,,2013-07-20 09:34:00,
2013-07-20 01:39:00,58.6,52.1,0.00,NNE,13,10.5,-999.0,78,0.00,,,-99.99,,2013-07-20 09:39:00,
2013-07-20 01:44:00,58.9,51.7,0.00,East,81,17.8,-999.0,77,0.00,,,-99.99,,2013-07-20 09:44:00,
2013-07-20 01:49:00,58.9,51.6,0.00,NE,54,21.0,-999.0,76,0.00,,,-99.99,,2013-07-20 09:49:00,
2013-07-20 01:54:00,58.8,51.6,0.00,ENE,75,17.2,-999.0,76,0.00,,,-99.99,,2013-07-20 09:54:00,
2013-07-20 02:00:00,58.1,51.7,0.00,NE,53,17.8,-999.0,79,0.00,,,-99.99,,2013-07-20 10:00:00,
2013-07-20 02:04:00,58.1,51.8,0.00,ENE,66,17.4,-999.0,79,0.00,,,-99.99,,2013-07-20 10:04:00,
2013-07-20 02:09:00,58.7,51.9,0.00,ENE,57,11.7,-999.0,78,0.00,,,-99.99,,2013-07-20 10:09:00,
2013-07-20 02:14:00,58.3,51.7,0.00,East,99,7.0,-999.0,78,0.00,,,-99.99,,2013-07-20 10:14:00,
2013-07-20 02:19:00,58.8,51.4,0.00,SE,132,11.4,-999.0,76,0.00,,,-99.99,,2013-07-20 10:19:00,
2013-07-20 02:24:00,58.5,51.7,0.00,ENE,67,10.2,-999.0,78,0.00,,,-99.99,,2013-07-20 10:24:00,
2013-07-20 02:29:00,57.9,51.8,0.00,East,89,19.0,-999.0,80,0.00,,,-99.99,,2013-07-20 10:29:00,
2013-07-20 02:34:00,57.4,51.8,0.00,NE,50,11.7,-999.0,81,0.00,,,-99.99,,2013-07-20 10:34:00,
2013-07-20 02:39:00,58.3,51.9,0.00,East,88,20.9,-999.0,79,0.00,,,-99.99,,2013-07-20 10:39:00,
2013-07-20 02:44:00,58.3,51.6,0.00,ENE,61,10.7,-999.0,78,0.00,,,-99.99,,2013-07-20 10:44:00,
2013-07-20 02:49:00,58.3,51.8,0.00,East,79,16.4,-999.0,78,0.00,,,-99.99,,2013-07-20 10:49:00,
2013-07-20 02:54:00,58.0,51.7,0.00,ENE,72,3.3,-999.0,79,0.00,,,-99.99,,2013-07-20 10:54:00,
2013-07-20 03:00:00,57.7,52.0,0.00,NE,54,7.7,-999.0,81,0.00,,,-99.99,,2013-07-20 11:00:00,
2013-07-20 03:04:00,57.9,51.7,0.00,ESE,114,13.2,-999.0,79,0.00,,,-99.99,,2013-07-20 11:04:00,
2013-07-20 03:09:00,58.8,51.8,0.00,East,89,8.2,-999.0,77,0.00,,,-99.99,,2013-07-20 11:09:00,
2013-07-20 03:14:00,57.7,51.7,0.00,NE,42,21.5,-999.0,80,0.00,,,-99.99,,2013-07-20 11:14:00,
2013-07-20 03:19:00,57.6,51.8,0.00,NE,39,20.4,-999.0,80,0.00,,,-99.99,,2013-07-20 11:19:00,
2013-07-20 03:24:00,58.2,51.6,0.00,ENE,57,16.1,-999.0,78,0.00,,,-99.99,,2013-07-20 11:24:00,
2013-07-20 03:29:00,58.9,51.8,0.00,ENE,63,35.5,-999.0,77,0.00,,,-99.99,,2013-07-20 11:29:00,
2013-07-20 03:34:00,59.1,51.5,0.00,ENE,64,32.3,-999.0,75,0.00,,,-99.99,,2013-07-20 11:34:00,
2013-07-20 03:39:00,59.0,51.5,0.00,ENE,64,28.9,-999.0,76,0.00,,,-99.99,,2013-07-20 11:39:00,
2013-07-20 03:44:00,58.7,51.5,0.00,East,83,27.5,-999.0,76,0.00,,,-99.99,,2013-07-20 11:44:00,
2013-07-20 03:49:00,58.2,51.6,0.00,ENE,78,29.5,-999.0,78,0.01,,,-99.99,,2013-07-20 11:49:00,
2013-07-20 03:54:00,58.3,51.7,0.00,ENE,72,25.3,-999.0,78,0.01,,,-99.99,,2013-07-20 11:54:00,
2013-07-20 04:00:00,58.9,51.4,0.00,East,82,31.7,-999.0,76,0.00,,,-99.99,,2013-07-20 12:00:00,
2013-07-20 04:04:00,58.6,51.3,0.00,ENE,63,25.2,-999.0,76,0.04,,,-99.99,,2013-07-20 12:04:00,
2013-07-20 04:09:00,58.6,51.6,0.00,ENE,68,24.2,-999.0,77,0.08,,,-99.99,,2013-07-20 12:09:00,
2013-07-20 04:14:00,58.2,51.5,0.00,ENE,67,32.5,-999.0,78,0.08,,,-99.99,,2013-07-20 12:14:00,
2013-07-20 04:19:00,57.9,51.5,0.00,ENE,65,36.0,-999.0,79,0.08,,,-99.99,,2013-07-20 12:19:00,
2013-07-20 04:24:00,57.7,51.4,0.00,ENE,60,32.4,-999.0,79,0.26,,,-99.99,,2013-07-20 12:24:00,
2013-07-20 04:29:00,57.4,51.5,0.00,East,79,35.6,-999.0,80,0.28,,,-99.99,,2013-07-20 12:29:00,
2013-07-20 04:34:00,57.4,51.2,0.00,ENE,75,34.0,-999.0,79,0.45,,,-99.99,,2013-07-20 12:34:00,
2013-07-20 04:39:00,56.8,51.7,0.00,ENE,67,40.9,-999.0,82,0.47,,,-99.99,,2013-07-20 12:39:00,
2013-07-20 04:44:00,56.5,51.5,0.00,ENE,68,30.6,-999.0,83,0.53,,,-99.99,,2013-07-20 12:44:00,
2013-07-20 04:49:00,56.7,51.2,0.00,East,91,44.6,-999.0,82,0.53,,,-99.99,,2013-07-20 12:49:00,
2013-07-20 04:54:00,56.8,51.3,0.00,East,87,39.5,-999.0,81,0.74,,,-99.99,,2013-07-20 12:54:00,
2013-07-20 05:00:00,56.3,51.4,0.00,ENE,75,38.5,-999.0,83,0.00,,,-99.99,,2013-07-20 13:00:00,
2013-07-20 05:04:00,56.2,51.2,0.00,East,85,34.8,-999.0,83,0.05,,,-99.99,,2013-07-20 13:04:00,
2013-07-20 05:09:00,56.0,51.0,0.00,ENE,76,34.8,-999.0,83,0.09,,,-99.99,,2013-07-20 13:09:00,
2013-07-20 05:14:00,56.2,50.7,0.00,ENE,74,37.6,-999.0,81,0.27,,,-99.99,,2013-07-20 13:14:00,
2013-07-20 05:19:00,56.2,50.7,0.00,ENE,78,40.0,-999.0,81,0.37,,,-99.99,,2013-07-20 13:19:00,
2013-07-20 05:24:00,55.9,50.2,0.00,East,81,37.7,-999.0,81,0.43,,,-99.99,,2013-07-20 13:24:00,
2013-07-20 05:29:00,55.7,50.2,0.00,East,82,41.2,-999.0,81,0.55,,,-99.99,,2013-07-20 13:29:00,
2013-07-20 05:34:00,55.5,49.9,0.00,ENE,71,39.5,-999.0,81,0.73,,,-99.99,,2013-07-20 13:34:00,
2013-07-20 05:39:00,55.8,49.8,0.00,ENE,72,32.6,-999.0,80,0.85,,,-99.99,,2013-07-20 13:39:00,
2013-07-20 05:44:00,56.7,49.1,0.00,East,83,33.5,-999.0,75,1.01,,,-99.99,,2013-07-20 13:44:00,
2013-07-20 05:49:00,56.6,49.3,0.00,ENE,57,30.3,-999.0,76,1.60,,,-99.99,,2013-07-20 13:49:00,
2013-07-20 05:54:00,57.2,49.0,0.00,ENE,72,39.1,-999.0,73,1.89,,,-99.99,,2013-07-20 13:54:00,
2013-07-20 06:00:00,57.1,48.8,0.00,East,86,31.9,-999.0,73,0.00,,,-99.99,,2013-07-20 14:00:00,
2013-07-20 06:04:00,57.2,48.8,0.00,ENE,68,39.3,-999.0,73,0.11,,,-99.99,,2013-07-20 14:04:00,
2013-07-20 06:09:00,57.9,48.5,0.00,East,84,29.2,-999.0,70,0.11,,,-99.99,,2013-07-20 14:09:00,
2013-07-20 06:14:00,57.3,48.6,0.00,ENE,71,36.9,-999.0,72,0.12,,,-99.99,,2013-07-20 14:14:00,
2013-07-20 06:19:00,57.0,48.8,0.00,ENE,74,36.0,-999.0,74,0.30,,,-99.99,,2013-07-20 14:19:00,
2013-07-20 06:24:00,56.8,48.6,0.00,ENE,72,35.1,-999.0,73,0.39,,,-99.99,,2013-07-20 14:24:00,
2013-07-20 06:29:00,57.0,48.4,0.00,ENE,57,32.9,-999.0,72,0.47,,,-99.99,,2013-07-20 14:29:00,
2013-07-20 06:34:00,56.8,48.3,0.00,ENE,78,37.7,-999.0,73,0.58,,,-99.99,,2013-07-20 14:34:00,
2013-07-20 06:39:00,56.6,48.3,0.00,ENE,68,36.9,-999.0,73,0.59,,,-99.99,,2013-07-20 14:39:00,
2013-07-20 06:44:00,57.1,48.1,0.00,ENE,65,30.5,-999.0,71,0.60,,,-99.99,,2013-07-20 14:44:00,
2013-07-20 06:49:00,57.4,48.4,0.00,ENE,77,29.9,-999.0,71,0.63,,,-99.99,,2013-07-20 14:49:00,
2013-07-20 06:54:00,57.6,48.3,0.00,ENE,74,27.3,-999.0,71,0.63,,,-99.99,,2013-07-20 14:54:00,
2013-07-20 07:00:00,57.6,47.9,0.00,ENE,77,38.5,-999.0,70,0.00,,,-99.99,,2013-07-20 15:00:00,
2013-07-20 07:04:00,57.5,48.1,0.00,ENE,77,33.4,-999.0,70,0.01,,,-99.99,,2013-07-20 15:04:00,
2013-07-20 07:09:00,57.9,47.6,0.00,ENE,74,27.2,-999.0,68,0.01,,,-99.99,,2013-07-20 15:09:00,
2013-07-20 07:14:00,58.4,47.5,0.00,East,80,27.7,-999.0,66,0.01,,,-99.99,,2013-07-20 15:14:00,
2013-07-20 07:19:00,58.0,48.0,0.00,ENE,66,18.0,-999.0,69,0.01,,,-99.99,,2013-07-20 15:19:00,
2013-07-20 07:24:00,57.8,48.0,0.00,ENE,63,22.2,-999.0,69,0.01,,,-99.99,,2013-07-20 15:24:00,
2013-07-20 07:29:00,58.8,47.0,0.00,ENE,73,25.5,-999.0,64,0.01,,,-99.99,,2013-07-20 15:29:00,
2013-07-20 07:34:00,58.6,47.2,0.00,ENE,74,17.8,-999.0,65,0.01,,,-99.99,,2013-07-20 15:34:00,
2013-07-20 07:39:00,59.1,47.1,0.00,ENE,67,24.3,-999.0,64,0.01,,,-99.99,,2013-07-20 15:39:00,
2013-07-20 07:44:00,59.6,47.0,0.00,ENE,69,28.1,-999.0,62,0.01,,,-99.99,,2013-07-20 15:44:00,
2013-07-20 07:49:00,58.8,46.9,0.00,ENE,75,27.8,-999.0,64,0.01,,,-99.99,,2013-07-20 15:49:00,
2013-07-20 07:54:00,58.1,47.7,0.00,ENE,67,21.0,-999.0,68,0.01,,,-99.99,,2013-07-20 15:54:00,
2013-07-20 08:00:00,58.0,47.1,0.00,ENE,62,22.8,-999.0,66,0.00,,,-99.99,,2013-07-20 16:00:00,
2013-07-20 08:04:00,57.9,47.4,0.00,East,87,25.7,-999.0,67,0.00,,,-99.99,,2013-07-20 16:04:00,
2013-07-20 08:09:00,58.7,46.9,0.00,ENE,59,32.1,-999.0,64,0.00,,,-99.99,,2013-07-20 16:09:00,
2013-07-20 08:14:00,57.9,47.4,0.00,ENE,58,38.6,-999.0,67,0.00,,,-99.99,,2013-07-20 16:14:00,
2013-07-20 08:19:00,57.3,47.8,0.00,ENE,75,22.9,-999.0,70,0.00,,,-99.99,,2013-07-20 16:19:00,
2013-07-20 08:24:00,57.5,47.6,0.00,ENE,73,29.7,-999.0,69,0.00,,,-99.99,,2013-07-20 16:24:00,
2013-07-20 08:29:00,57.6,47.5,0.00,ENE,68,30.2,-999.0,68,0.04,,,-99.99,,2013-07-20 16:29:00,
2013-07-20 08:37:00,58.0,46.8,0.00,ENE,74,33.7,-999.0,66,0.04,,,-99.99,,2013-07-20 16:37:00,
2013-07-20 08:41:00,58.0,47.4,0.00,NE,52,28.3,-999.0,67,0.04,,,-99.99,,2013-07-20 16:41:00,
2013-07-20 08:46:00,58.1,47.3,0.00,ENE,60,30.2,-999.0,67,0.06,,,-99.99,,2013-07-20 16:46:00,
2013-07-20 08:51:00,57.9,47.7,0.00,East,84,28.9,-999.0,68,0.06,,,-99.99,,2013-07-20 16:51:00,
2013-07-20 08:56:00,57.6,47.3,0.00,ENE,71,37.8,-999.0,68,0.06,,,-99.99,,2013-07-20 16:56:00,
2013-07-20 09:01:00,57.6,47.7,0.00,ENE,64,27.5,-999.0,69,0.00,,,-99.99,,2013-07-20 17:01:00,
2013-07-20 09:06:00,57.4,48.0,0.00,ENE,69,29.5,-999.0,70,0.00,,,-99.99,,2013-07-20 17:06:00,
2013-07-20 09:11:00,57.1,48.2,0.00,East,80,27.7,-999.0,71,0.00,,,-99.99,,2013-07-20 17:11:00,
2013-07-20 09:16:00,57.1,48.5,0.00,East,95,16.7,-999.0,72,0.00,,,-99.99,,2013-07-20 17:16:00,
2013-07-20 09:21:00,57.0,48.3,0.00,ENE,67,24.7,-999.0,72,0.00,,,-99.99,,2013-07-20 17:21:00,
2013-07-20 09:26:00,57.1,48.1,0.00,NE,46,23.4,-999.0,71,0.00,,,-99.99,,2013-07-20 17:26:00,
2013-07-20 09:31:00,57.8,47.8,0.00,East,83,28.1,-999.0,69,0.00,,,-99.99,,2013-07-20 17:31:00,
2013-07-20 09:37:00,57.9,47.8,0.00,ENE,67,28.3,-999.0,68,0.00,,,-99.99,,2013-07-20 17:37:00,
2013-07-20 09:42:00,58.0,47.4,0.00,ENE,58,33.1,-999.0,67,0.00,,,-99.99,,2013-07-20 17:42:00,
2013-07-20 09:46:00,58.0,47.9,0.00,ENE,62,29.6,-999.0,68,0.00,,,-99.99,,2013-07-20 17:46:00,
2013-07-20 09:51:00,58.0,48.0,0.00,ENE,69,25.3,-999.0,69,0.00,,,-99.99,,2013-07-20 17:51:00,
2013-07-20 09:56:00,57.9,48.2,0.00,NE,39,31.2,-999.0,69,0.00,,,-99.99,,2013-07-20 17:56:00,
2013-07-20 10:01:00,57.8,47.7,0.00,ENE,65,30.3,-999.0,68,0.00,,,-99.99,,2013-07-20 18:01:00,
2013-07-20 10:06:00,58.0,48.0,0.00,ENE,72,30.4,-999.0,69,0.00,,,-99.99,,2013-07-20 18:06:00,
2013-07-20 10:11:00,57.9,48.2,0.00,ENE,65,30.8,-999.0,69,0.00,,,-99.99,,2013-07-20 18:11:00,
2013-07-20 10:16:00,57.9,48.3,0.00,ENE,59,30.9,-999.0,70,0.00,,,-99.99,,2013-07-20 18:16:00,
2013-07-20 10:24:00,57.6,48.5,0.00,East,81,28.1,-999.0,71,0.00,,,-99.99,,2013-07-20 18:24:00,
2013-07-20 10:30:00,58.0,48.9,0.00,ENE,71,23.9,-999.0,71,0.00,,,-99.99,,2013-07-20 18:30:00,
2013-07-20 10:35:00,58.2,48.8,0.00,ENE,58,30.2,-999.0,70,0.00,,,-99.99,,2013-07-20 18:35:00,
2013-07-20 10:40:00,57.9,49.1,0.00,ENE,66,21.3,-999.0,72,0.00,,,-99.99,,2013-07-20 18:40:00,
2013-07-20 10:45:00,58.2,49.1,0.00,ENE,63,25.2,-999.0,71,0.00,,,-99.99,,2013-07-20 18:45:00,
2013-07-20 10:50:00,58.5,49.3,0.00,ENE,69,20.1,-999.0,71,0.00,,,-99.99,,2013-07-20 18:50:00,
2013-07-20 10:55:00,58.7,49.3,0.00,ENE,69,24.1,-999.0,71,0.00,,,-99.99,,2013-07-20 18:55:00,
2013-07-20 11:00:00,58.6,49.5,0.00,NE,47,15.4,-999.0,71,0.00,,,-99.99,,2013-07-20 19:00:00,
2013-07-20 11:05:00,58.2,49.3,0.00,ENE,67,14.8,-999.0,72,0.00,,,-99.99,,2013-07-20 19:05:00,
2013-07-20 11:10:00,58.7,49.6,0.00,ENE,62,20.9,-999.0,71,0.00,,,-99.99,,2013-07-20 19:10:00,
2013-07-20 11:15:00,58.7,49.7,0.00,NE,48,15.3,-999.0,71,0.00,,,-99.99,,2013-07-20 19:15:00,
2013-07-20 11:20:00,59.0,49.7,0.00,East,81,19.1,-999.0,71,0.00,,,-99.99,,2013-07-20 19:20:00,
2013-07-20 11:25:00,59.1,50.0,0.00,East,81,19.8,-999.0,71,0.00,,,-99.99,,2013-07-20 19:25:00,
2013-07-20 11:30:00,58.9,50.4,0.00,ENE,64,15.8,-999.0,73,0.00,,,-99.99,,2013-07-20 19:30:00,
2013-07-20 11:35:00,59.0,50.1,0.00,ENE,76,20.7,-999.0,72,0.00,,,-99.99,,2013-07-20 19:35:00,
2013-07-20 11:41:00,59.1,50.2,0.00,ENE,73,20.3,-999.0,72,0.00,,,-99.99,,2013-07-20 19:41:00,
2013-07-20 11:48:00,59.1,50.8,0.00,NE,50,12.4,-999.0,74,0.00,,,-99.99,,2013-07-20 19:48:00,
2013-07-20 11:53:00,59.1,49.6,0.00,ENE,65,24.7,-999.0,70,0.00,,,-99.99,,2013-07-20 19:53:00,
2013-07-20 12:01:00,59.3,49.7,0.00,NE,51,18.5,-999.0,70,0.00,,,-99.99,,2013-07-20 20:01:00,
2013-07-20 12:06:00,59.6,50.1,0.00,ENE,59,17.4,-999.0,70,0.00,,,-99.99,,2013-07-20 20:06:00,
2013-07-20 12:13:00,59.8,49.9,0.00,ENE,70,18.6,-999.0,69,0.00,,,-99.99,,2013-07-20 20:13:00,
2013-07-20 12:20:00,60.3,50.0,0.00,East,79,17.2,-999.0,68,0.00,,,-99.99,,2013-07-20 20:20:00,
2013-07-20 12:25:00,60.7,50.0,0.00,NE,53,14.2,-999.0,67,0.00,,,-99.99,,2013-07-20 20:25:00,
2013-07-20 12:30:00,60.5,50.1,0.00,NE,39,15.5,-999.0,68,0.00,,,-99.99,,2013-07-20 20:30:00,
2013-07-20 12:35:00,60.5,49.7,0.00,East,79,15.8,-999.0,67,0.00,,,-99.99,,2013-07-20 20:35:00,
2013-07-20 12:40:00,60.2,50.0,0.00,ENE,64,12.3,-999.0,69,0.00,,,-99.99,,2013-07-20 20:40:00,
2013-07-20 12:45:00,60.1,49.5,0.00,East,80,14.0,-999.0,67,0.00,,,-99.99,,2013-07-20 20:45:00,
2013-07-20 12:52:00,59.9,49.8,0.00,ENE,71,10.8,-999.0,69,0.00,,,-99.99,,2013-07-20 20:52:00,
2013-07-20 12:57:00,60.3,49.2,0.00,NE,56,20.0,-999.0,66,0.00,,,-99.99,,2013-07-20 20:57:00,
2013-07-20 13:03:00,60.0,49.3,0.00,ENE,75,18.3,-999.0,67,0.00,,,-99.99,,2013-07-20 21:03:00,
2013-07-20 13:08:00,59.7,49.0,0.00,East,89,12.1,-999.0,67,0.00,,,-99.99,,2013-07-20 21:08:00,
2013-07-20 13:13:00,59.6,49.6,0.00,ENE,77,11.9,-999.0,69,0.00,,,-99.99,,2013-07-20 21:13:00,
2013-07-20 13:19:00,59.8,49.5,0.00,ENE,57,18.1,-999.0,68,0.00,,,-99.99,,2013-07-20 21:19:00,
2013-07-20 13:24:00,60.0,49.9,0.00,ENE,75,12.9,-999.0,69,0.00,,,-99.99,,2013-07-20 21:24:00,
2013-07-20 13:31:00,59.6,49.4,0.00,NE,55,16.0,-999.0,68,0.00,,,-99.99,,2013-07-20 21:31:00,
2013-07-20 13:36:00,59.4,49.2,0.00,East,83,17.0,-999.0,69,0.00,,,-99.99,,2013-07-20 21:36:00,
2013-07-20 13:42:00,59.3,49.3,0.00,ENE,68,12.8,-999.0,69,0.00,,,-99.99,,2013-07-20 21:42:00,
2013-07-20 13:47:00,59.4,49.3,0.00,ENE,70,17.3,-999.0,69,0.00,,,-99.99,,2013-07-20 21:47:00,
2013-07-20 13:52:00,59.6,49.2,0.00,ENE,67,20.8,-999.0,68,0.00,,,-99.99,,2013-07-20 21:52:00,
2013-07-20 13:57:00,59.5,49.7,0.00,East,86,15.6,-999.0,69,0.00,,,-99.99,,2013-07-20 21:57:00,
2013-07-20 14:04:00,59.4,49.2,0.00,East,79,15.1,-999.0,68,0.00,,,-99.99,,2013-07-20 22:04:00,
2013-07-20 14:10:00,59.6,49.5,0.00,East,85,19.1,-999.0,69,0.00,,,-99.99,,2013-07-20 22:10:00,
2013-07-20 14:15:00,59.7,49.5,0.00,ENE,67,17.8,-999.0,68,0.00,,,-99.99,,2013-07-20 22:15:00,
2013-07-20 14:23:00,60.3,48.8,0.00,ENE,64,17.8,-999.0,65,0.00,,,-99.99,,2013-07-20 22:23:00,
2013-07-20 14:28:00,60.2,48.7,0.00,NE,40,16.9,-999.0,65,0.00,,,-99.99,,2013-07-20 22:28:00,
2013-07-20 14:33:00,60.5,48.4,0.00,ENE,66,17.4,-999.0,64,0.00,,,-99.99,,2013-07-20 22:33:00,
2013-07-20 14:38:00,61.1,48.4,0.00,East,81,14.1,-999.0,62,0.00,,,-99.99,,2013-07-20 22:38:00,
2013-07-20 14:46:00,61.3,48.1,0.00,ESE,104,13.3,-999.0,61,0.00,,,-99.99,,2013-07-20 22:46:00,
2013-07-20 14:52:00,61.4,48.2,0.00,ENE,63,8.9,-999.0,61,0.00,,,-99.99,,2013-07-20 22:52:00,
2013-07-20 14:58:00,61.3,48.5,0.00,NE,55,19.3,-999.0,62,0.00,,,-99.99,,2013-07-20 22:58:00,
2013-07-20 15:03:00,60.3,47.7,0.00,East,94,15.8,-999.0,63,0.00,,,-99.99,,2013-07-20 23:03:00,
2013-07-20 15:08:00,59.7,48.3,0.00,ENE,78,18.1,-999.0,65,0.00,,,-99.99,,2013-07-20 23:08:00,
2013-07-20 15:13:00,59.9,48.8,0.00,NE,53,18.2,-999.0,66,0.00,,,-99.99,,2013-07-20 23:13:00,
2013-07-20 15:18:00,60.3,48.6,0.00,ENE,73,20.0,-999.0,65,0.00,,,-99.99,,2013-07-20 23:18:00,
2013-07-20 15:25:00,60.5,47.8,0.00,ENE,68,27.7,-999.0,62,0.00,,,-99.99,,2013-07-20 23:25:00,
2013-07-20 15:30:00,60.8,47.3,0.00,NE,42,26.6,-999.0,61,0.00,,,-99.99,,2013-07-20 23:30:00,
2013-07-20 15:36:00,60.7,47.5,0.00,ENE,64,23.1,-999.0,61,0.00,,,-99.99,,2013-07-20 23:36:00,
2013-07-20 15:41:00,60.5,47.7,0.00,NE,52,16.2,-999.0,62,0.00,,,-99.99,,2013-07-20 23:41:00,
2013-07-20 15:46:00,59.7,48.0,0.00,ENE,78,25.4,-999.0,65,0.00,,,-99.99,,2013-07-20 23:46:00,
2013-07-20 15:51:00,59.9,48.8,0.00,East,79,16.4,-999.0,66,0.00,,,-99.99,,2013-07-20 23:51:00,
2013-07-20 15:56:00,59.7,48.4,0.00,ENE,74,26.2,-999.0,66,0.00,,,-99.99,,2013-07-20 23:56:00,
2013-07-20 16:01:00,59.7,48.8,0.00,ENE,63,18.7,-999.0,67,0.00,,,-99.99,,2013-07-21 00:01:00,
2013-07-20 16:08:00,59.6,48.6,0.00,ENE,74,18.1,-999.0,66,0.00,,,-99.99,,2013-07-21 00:08:00,
2013-07-20 16:13:00,59.7,48.6,0.00,ENE,71,20.2,-999.0,66,0.00,,,-99.99,,2013-07-21 00:13:00,
2013-07-20 16:18:00,59.6,49.0,0.00,ENE,71,10.8,-999.0,67,0.00,,,-99.99,,2013-07-21 00:18:00,
2013-07-20 16:23:00,59.5,48.9,0.00,ENE,67,19.2,-999.0,67,0.00,,,-99.99,,2013-07-21 00:23:00,
2013-07-20 16:28:00,59.4,48.8,0.00,NNE,17,13.5,-999.0,67,0.00,,,-99.99,,2013-07-21 00:28:00,
2013-07-20 16:33:00,60.0,49.0,0.00,ENE,59,14.5,-999.0,66,0.00,,,-99.99,,2013-07-21 00:33:00,
2013-07-20 16:38:00,60.1,49.1,0.00,East,80,9.7,-999.0,66,0.00,,,-99.99,,2013-07-21 00:38:00,
2013-07-20 16:43:00,60.0,48.7,0.00,NNE,24,7.1,-999.0,66,0.00,,,-99.99,,2013-07-21 00:43:00,
2013-07-20 16:48:00,60.3,49.2,0.00,ENE,63,7.9,-999.0,66,0.00,,,-99.99,,2013-07-21 00:48:00,
2013-07-20 16:56:00,59.6,49.4,0.00,ENE,65,10.6,-999.0,68,0.00,,,-99.99,,2013-07-21 00:56:00,
2013-07-20 17:01:00,59.9,49.8,0.00,NE,35,5.4,-999.0,69,0.00,,,-99.99,,2013-07-21 01:01:00,
2013-07-20 17:06:00,59.9,49.5,0.00,NE,37,6.8,-999.0,68,0.00,,,-99.99,,2013-07-21 01:06:00,
2013-07-20 17:11:00,60.1,49.3,0.00,ESE,107,4.8,-999.0,67,0.00,,,-99.99,,2013-07-21 01:11:00,
2013-07-20 17:16:00,60.3,49.9,0.00,ENE,59,13.1,-999.0,68,0.00,,,-99.99,,2013-07-21 01:16:00,
2013-07-20 17:21:00,60.0,49.6,0.00,East,85,7.8,-999.0,68,0.00,,,-99.99,,2013-07-21 01:21:00,
2013-07-20 17:29:00,59.9,50.0,0.00,ENE,65,6.3,-999.0,69,0.00,,,-99.99,,2013-07-21 01:29:00,
2013-07-20 17:34:00,59.7,48.9,0.00,East,90,18.7,-999.0,67,0.00,,,-99.99,,2013-07-21 01:34:00,
2013-07-20 17:41:00,60.1,48.6,0.00,ESE,106,16.5,-999.0,65,0.00,,,-99.99,,2013-07-21 01:41:00,
2013-07-20 17:48:00,60.3,49.3,0.00,East,84,9.4,-999.0,66,0.00,,,-99.99,,2013-07-21 01:48:00,
2013-07-20 17:53:00,59.8,49.5,0.00,NE,51,10.3,-999.0,68,0.00,,,-99.99,,2013-07-21 01:53:00,
2013-07-20 17:58:00,59.9,49.0,0.00,ENE,68,16.7,-999.0,67,0.00,,,-99.99,,2013-07-21 01:58:00,
2013-07-20 18:03:00,59.7,49.4,0.00,East,98,11.0,-999.0,68,0.00,,,-99.99,,2013-07-21 02:03:00,
2013-07-20 18:10:00,59.6,49.3,0.00,ENE,76,16.0,-999.0,68,0.00,,,-99.99,,2013-07-21 02:10:00,
2013-07-20 18:15:00,59.4,50.0,0.00,ENE,58,9.0,-999.0,70,0.00,,,-99.99,,2013-07-21 02:15:00,
2013-07-20 18:21:00,59.6,49.1,0.00,East,79,11.7,-999.0,68,0.00,,,-99.99,,2013-07-21 02:21:00,
2013-07-20 18:27:00,60.0,48.8,0.00,ESE,113,8.6,-999.0,66,0.00,,,-99.99,,2013-07-21 02:27:00,
2013-07-20 18:34:00,59.4,49.4,0.00,NE,48,9.8,-999.0,69,0.00,,,-99.99,,2013-07-21 02:34:00,
2013-07-20 18:39:00,59.3,49.1,0.00,ENE,61,21.5,-999.0,68,0.00,,,-99.99,,2013-07-21 02:39:00,
2013-07-20 18:44:00,59.3,49.3,0.00,ENE,62,9.8,-999.0,69,0.00,,,-99.99,,2013-07-21 02:44:00,
2013-07-20 18:49:00,59.7,48.6,0.00,East,80,17.2,-999.0,66,0.00,,,-99.99,,2013-07-21 02:49:00,
2013-07-20 18:54:00,59.7,48.0,0.00,ENE,64,12.9,-999.0,65,0.00,,,-99.99,,2013-07-21 02:54:00,
2013-07-20 19:00:00,59.7,48.0,0.00,ENE,62,9.3,-999.0,65,0.00,,,-99.99,,2013-07-21 03:00:00,
2013-07-20 19:04:00,59.4,48.5,0.00,East,91,8.9,-999.0,67,0.00,,,-99.99,,2013-07-21 03:04:00,
2013-07-20 19:09:00,58.8,48.4,0.00,ENE,69,16.2,-999.0,68,0.00,,,-99.99,,2013-07-21 03:09:00,
2013-07-20 19:14:00,58.8,48.6,0.00,ENE,77,11.3,-999.0,68,0.00,,,-99.99,,2013-07-21 03:14:00,
2013-07-20 19:21:00,58.9,48.6,0.00,ENE,65,17.8,-999.0,68,0.00,,,-99.99,,2013-07-21 03:21:00,
2013-07-20 19:27:00,58.7,48.5,0.00,ENE,75,16.3,-999.0,68,0.00,,,-99.99,,2013-07-21 03:27:00,
2013-07-20 19:32:00,58.8,48.3,0.00,East,82,20.7,-999.0,67,0.00,,,-99.99,,2013-07-21 03:32:00,
2013-07-20 19:37:00,58.8,48.2,0.00,ENE,70,17.1,-999.0,67,0.00,,,-99.99,,2013-07-21 03:37:00,
2013-07-20 19:44:00,58.7,48.2,0.00,ENE,69,28.5,-999.0,67,0.00,,,-99.99,,2013-07-21 03:44:00,
2013-07-20 19:51:00,58.3,48.5,0.00,NE,55,25.2,-999.0,69,0.00,,,-99.99,,2013-07-21 03:51:00,
2013-07-20 19:56:00,58.2,48.4,0.00,East,83,29.6,-999.0,69,0.00,,,-99.99,,2013-07-21 03:56:00,
2013-07-20 20:01:00,58.2,47.9,0.00,ENE,64,34.5,-999.0,68,0.00,,,-99.99,,2013-07-21 04:01:00,
2013-07-20 20:03:00,58.3,48.5,0.00,ENE,67,23.1,-999.0,69,0.00,,,-99.99,,2013-07-21 04:03:00,
2013-07-20 20:05:00,58.2,48.5,0.00,ENE,77,21.7,-999.0,70,0.00,,,-99.99,,2013-07-21 04:05:00,
2013-07-20 20:10:00,58.2,48.4,0.00,ENE,69,26.4,-999.0,69,0.00,,,-99.99,,2013-07-21 04:10:00,
2013-07-20 20:11:00,58.0,48.3,0.00,ENE,64,27.4,-999.0,69,0.00,,,-99.99,,2013-07-21 04:11:00,
2013-07-20 20:16:00,57.9,48.9,0.00,ENE,69,13.9,-999.0,71,0.00,,,-99.99,,2013-07-21 04:16:00,
2013-07-20 20:21:00,58.5,49.5,0.00,ENE,75,17.1,-999.0,71,0.00,,,-99.99,,2013-07-21 04:21:00,
2013-07-20 20:26:00,58.7,49.4,0.00,NNE,30,17.0,-999.0,71,0.00,,,-99.99,,2013-07-21 04:26:00,
2013-07-20 20:31:00,58.3,49.4,0.00,ENE,74,20.3,-999.0,72,0.00,,,-99.99,,2013-07-21 04:31:00,
2013-07-20 20:36:00,58.3,49.1,0.00,NE,43,22.0,-999.0,71,0.00,,,-99.99,,2013-07-21 04:36:00,
2013-07-20 20:41:00,57.7,49.2,0.00,NE,54,17.5,-999.0,73,0.00,,,-99.99,,2013-07-21 04:41:00,
2013-07-20 20:46:00,58.0,49.1,0.00,ENE,61,23.7,-999.0,72,0.00,,,-99.99,,2013-07-21 04:46:00,
2013-07-20 20:51:00,57.7,49.3,0.00,ENE,77,18.2,-999.0,73,0.00,,,-99.99,,2013-07-21 04:51:00,
2013-07-20 20:56:00,57.7,48.7,0.00,ENE,62,27.6,-999.0,71,0.00,,,-99.99,,2013-07-21 04:56:00,
2013-07-20 21:01:00,58.0,48.7,0.00,East,87,26.6,-999.0,71,0.00,,,-99.99,,2013-07-21 05:01:00,
2013-07-20 21:06:00,57.7,48.7,0.00,ENE,68,16.0,-999.0,71,0.00,,,-99.99,,2013-07-21 05:06:00,
2013-07-20 21:11:00,57.7,48.5,0.00,ESE,102,25.9,-999.0,71,0.00,,,-99.99,,2013-07-21 05:11:00,
2013-07-20 21:16:00,57.3,48.9,0.00,NE,48,11.4,-999.0,73,0.00,,,-99.99,,2013-07-21 05:16:00,
2013-07-20 21:21:00,57.4,48.7,0.00,SSE,153,13.5,-999.0,72,0.00,,,-99.99,,2013-07-21 05:21:00,
2013-07-20 21:26:00,57.7,48.7,0.00,NE,42,13.6,-999.0,71,0.00,,,-99.99,,2013-07-21 05:26:00,
2013-07-20 21:31:00,57.7,48.3,0.00,ENE,65,12.8,-999.0,70,0.00,,,-99.99,,2013-07-21 05:31:00,
2013-07-20 21:36:00,57.6,48.3,0.00,NE,45,17.2,-999.0,70,0.00,,,-99.99,,2013-07-21 05:36:00,
2013-07-20 21:41:00,57.9,48.2,0.00,NE,56,15.2,-999.0,70,0.00,,,-99.99,,2013-07-21 05:41:00,
2013-07-20 21:46:00,57.6,48.2,0.00,NE,55,12.9,-999.0,70,0.00,,,-99.99,,2013-07-21 05:46:00,
2013-07-20 21:51:00,57.7,48.3,0.00,NE,53,3.4,-999.0,70,0.00,,,-99.99,,2013-07-21 05:51:00,
2013-07-20 21:56:00,57.2,48.3,0.00,North,7,10.8,-999.0,71,0.00,,,-99.99,,2013-07-21 05:56:00,
2013-07-20 22:01:00,56.9,48.5,0.00,NE,51,17.6,-999.0,73,0.00,,,-99.99,,2013-07-21 06:01:00,
2013-07-20 22:06:00,57.0,48.1,0.00,ENE,69,19.5,-999.0,71,0.00,,,-99.99,,2013-07-21 06:06:00,
2013-07-20 22:11:00,57.0,48.2,0.00,ENE,69,10.5,-999.0,72,0.00,,,-99.99,,2013-07-21 06:11:00,
2013-07-20 22:16:00,56.8,48.2,0.00,NE,49,8.0,-999.0,72,0.00,,,-99.99,,2013-07-21 06:16:00,
2013-07-20 22:21:00,56.8,48.2,0.00,ENE,57,13.7,-999.0,72,0.00,,,-99.99,,2013-07-21 06:21:00,
2013-07-20 22:26:00,56.8,47.8,0.00,ENE,66,20.2,-999.0,71,0.00,,,-99.99,,2013-07-21 06:26:00,
2013-07-20 22:31:00,56.2,47.8,0.00,NNW,330,1.7,-999.0,73,0.00,,,-99.99,,2013-07-21 06:31:00,
2013-07-20 22:36:00,56.6,47.6,0.00,East,99,11.6,-999.0,71,0.00,,,-99.99,,2013-07-21 06:36:00,
2013-07-20 22:41:00,56.9,46.7,0.00,ENE,57,18.6,-999.0,68,0.00,,,-99.99,,2013-07-21 06:41:00,
2013-07-20 22:46:00,57.0,47.2,0.00,ENE,66,12.4,-999.0,69,0.00,,,-99.99,,2013-07-21 06:46:00,
2013-07-20 22:51:00,57.1,46.0,0.00,East,93,12.0,-999.0,66,0.00,,,-99.99,,2013-07-21 06:51:00,
2013-07-20 22:56:00,56.9,46.7,0.00,East,86,14.6,-999.0,68,0.00,,,-99.99,,2013-07-21 06:56:00,
2013-07-20 23:01:00,56.5,47.2,0.00,East,82,16.1,-999.0,70,0.00,,,-99.99,,2013-07-21 07:01:00,
2013-07-20 23:06:00,56.5,47.3,0.00,ENE,69,12.0,-999.0,71,0.00,,,-99.99,,2013-07-21 07:06:00,
2013-07-20 23:11:00,55.9,47.7,0.00,NE,47,5.6,-999.0,74,0.00,,,-99.99,,2013-07-21 07:11:00,
2013-07-20 23:16:00,55.7,48.1,0.00,ENE,60,21.9,-999.0,75,0.00,,,-99.99,,2013-07-21 07:16:00,
2013-07-20 23:21:00,55.8,48.3,0.00,ENE,63,23.7,-999.0,75,0.00,,,-99.99,,2013-07-21 07:21:00,
2013-07-20 23:26:00,55.6,48.0,0.00,ENE,71,23.0,-999.0,75,0.00,,,-99.99,,2013-07-21 07:26:00,
2013-07-20 23:31:00,55.1,48.3,0.00,NE,56,16.2,-999.0,77,0.00,,,-99.99,,2013-07-21 07:31:00,
2013-07-20 23:36:00,54.5,48.4,0.00,NNE,24,8.1,-999.0,79,0.00,,,-99.99,,2013-07-21 07:36:00,
2013-07-20 23:41:00,54.3,48.5,0.00,NE,39,8.7,-999.0,80,0.00,,,-99.99,,2013-07-21 07:41:00,
2013-07-20 23:46:00,54.3,48.4,0.00,East,79,8.3,-999.0,80,0.00,,,-99.99,,2013-07-21 07:46:00,
2013-07-20 23:51:00,54.2,48.1,0.00,ENE,63,14.2,-999.0,79,0.00,,,-99.99,,2013-07-21 07:51:00,
2013-07-20 23:56:00,55.0,48.0,0.00,ENE,67,11.6,-999.0,77,0.00,,,-99.99,,2013-07-21 07:56:00,